Time;durP1;ratioP1;P1;durP2;ratioP2;P2;SDS_P1;SDS_P2;PMS_P1;PMS_P2;Temp;Humidity;BMP_temperature;BMP_pressure;BME280_temperature;BME280_humidity;BME280_pressure;Samples;Min_cycle;Max_cycle;Signal;HPM_P1;HPM_P2
2021/10/08 00:00:44;;;;;;;400.13;59.90;;;;;;;;;;5055650;28;20245;-72
2021/10/08 00:03:10;;;;;;;234.97;52.97;;;;;;;;;;5054405;28;20622;-72
2021/10/08 00:05:38;;;;;;;213.90;53.23;;;;;;;;;;5056282;28;20765;-72
2021/10/08 00:08:04;;;;;;;416.80;70.03;;;;;;;;;;5055205;28;20271;-73
2021/10/08 00:10:31;;;;;;;609.87;84.63;;;;;;;;;;5056096;28;20208;-70
2021/10/08 00:12:58;;;;;;;180.67;49.07;;;;;;;;;;5056738;28;20252;-72
2021/10/08 00:15:24;;;;;;;333.70;57.20;;;;;;;;;;5055944;28;20285;-73
2021/10/08 00:17:51;;;;;;;394.27;59.97;;;;;;;;;;5055571;28;20669;-73
2021/10/08 00:20:18;;;;;;;259.67;51.87;;;;;;;;;;5055252;28;20919;-72
2021/10/08 00:22:46;;;;;;;309.27;58.27;;;;;;;;;;5054380;28;20218;-70
2021/10/08 00:25:13;;;;;;;487.93;72.23;;;;;;;;;;5055331;28;20306;-72
2021/10/08 00:27:39;;;;;;;406.87;61.80;;;;;;;;;;5053681;28;20219;-73
2021/10/08 00:30:06;;;;;;;628.33;74.77;;;;;;;;;;5054124;28;20212;-72
2021/10/08 00:32:33;;;;;;;353.40;57.20;;;;;;;;;;5055320;28;20216;-70
2021/10/08 00:34:59;;;;;;;466.90;69.40;;;;;;;;;;5055478;28;20310;-72
2021/10/08 00:37:25;;;;;;;313.47;59.87;;;;;;;;;;5055429;28;20219;-72
2021/10/08 00:39:53;;;;;;;198.87;50.70;;;;;;;;;;5055634;28;20608;-73
2021/10/08 00:42:22;;;;;;;444.17;65.20;;;;;;;;;;5054478;28;20816;-73
2021/10/08 00:44:49;;;;;;;408.33;58.97;;;;;;;;;;5055776;28;20292;-73
2021/10/08 00:47:16;;;;;;;485.10;71.53;;;;;;;;;;5055380;28;20266;-73
2021/10/08 00:49:42;;;;;;;311.17;53.77;;;;;;;;;;5055335;28;21076;-73
2021/10/08 00:52:09;;;;;;;196.80;49.63;;;;;;;;;;5053549;28;20262;-72
2021/10/08 00:54:35;;;;;;;634.33;86.03;;;;;;;;;;5053404;28;20220;-73
2021/10/08 00:57:03;;;;;;;266.10;51.37;;;;;;;;;;5056178;28;20589;-72
2021/10/08 00:59:30;;;;;;;214.20;47.47;;;;;;;;;;5052045;28;20212;-72
2021/10/08 01:01:57;;;;;;;536.27;72.27;;;;;;;;;;5055002;28;20216;-73
2021/10/08 01:04:25;;;;;;;193.20;43.87;;;;;;;;;;5055551;28;20611;-70
2021/10/08 01:06:51;;;;;;;298.43;57.40;;;;;;;;;;5053612;28;20672;-70
2021/10/08 01:09:18;;;;;;;237.40;55.00;;;;;;;;;;5055228;28;20220;-70
2021/10/08 01:11:45;;;;;;;302.30;53.47;;;;;;;;;;5054874;28;20318;-70
2021/10/08 01:14:13;;;;;;;503.03;77.37;;;;;;;;;;5054501;28;20208;-70
2021/10/08 01:16:40;;;;;;;342.33;60.63;;;;;;;;;;5054758;28;20282;-70
2021/10/08 01:19:06;;;;;;;264.77;57.37;;;;;;;;;;5056412;28;20685;-70
2021/10/08 01:21:34;;;;;;;301.40;59.70;;;;;;;;;;5054844;28;20282;-70
2021/10/08 01:24:00;;;;;;;790.67;110.93;;;;;;;;;;5053606;28;20268;-70
2021/10/08 01:26:27;;;;;;;622.00;84.67;;;;;;;;;;5053631;28;20783;-70
2021/10/08 01:28:53;;;;;;;489.50;82.33;;;;;;;;;;5054768;28;20294;-70
2021/10/08 01:31:20;;;;;;;262.47;54.67;;;;;;;;;;5055250;28;20211;-70
2021/10/08 01:33:46;;;;;;;310.57;60.10;;;;;;;;;;5055515;28;20246;-73
2021/10/08 01:36:12;;;;;;;292.67;57.67;;;;;;;;;;5053660;28;20233;-73
2021/10/08 01:38:40;;;;;;;303.37;57.60;;;;;;;;;;5053879;28;20253;-73
2021/10/08 01:41:07;;;;;;;273.93;52.77;;;;;;;;;;5053143;28;20232;-73
2021/10/08 01:43:33;;;;;;;297.80;47.77;;;;;;;;;;5054003;28;20217;-73
2021/10/08 01:45:59;;;;;;;475.97;56.57;;;;;;;;;;5054276;28;20217;-73
2021/10/08 01:48:26;;;;;;;462.27;57.53;;;;;;;;;;5051966;28;20215;-73
2021/10/08 01:50:52;;;;;;;311.03;46.17;;;;;;;;;;5053799;28;20240;-73
2021/10/08 01:53:19;;;;;;;368.23;50.20;;;;;;;;;;5053513;28;20350;-73
2021/10/08 01:55:47;;;;;;;301.37;44.83;;;;;;;;;;5053291;28;20274;-73
2021/10/08 01:58:13;;;;;;;185.50;37.90;;;;;;;;;;5054548;28;20220;-73
2021/10/08 02:00:40;;;;;;;260.07;40.53;;;;;;;;;;5054900;28;20698;-73
2021/10/08 02:03:06;;;;;;;222.33;38.47;;;;;;;;;;5054284;28;20288;-70
2021/10/08 02:05:32;;;;;;;235.53;39.57;;;;;;;;;;5055274;28;20280;-70
2021/10/08 02:07:59;;;;;;;209.43;37.57;;;;;;;;;;5054896;28;20261;-70
2021/10/08 02:10:25;;;;;;;215.37;40.30;;;;;;;;;;5054587;28;20210;-70
2021/10/08 02:12:53;;;;;;;320.87;48.10;;;;;;;;;;5053158;28;20255;-73
2021/10/08 02:15:19;;;;;;;293.70;49.60;;;;;;;;;;5053356;28;20269;-73
2021/10/08 02:17:46;;;;;;;231.03;38.80;;;;;;;;;;5054938;28;20796;-70
2021/10/08 02:20:12;;;;;;;176.37;36.97;;;;;;;;;;5053554;28;20233;-70
2021/10/08 02:22:41;;;;;;;173.20;34.63;;;;;;;;;;5053936;28;20230;-70
2021/10/08 02:25:08;;;;;;;135.20;32.97;;;;;;;;;;5056258;28;20228;-70
2021/10/08 02:27:34;;;;;;;166.53;34.37;;;;;;;;;;5058126;28;20676;-70
2021/10/08 02:30:02;;;;;;;195.40;34.77;;;;;;;;;;5058703;28;20215;-70
2021/10/08 02:32:29;;;;;;;166.93;38.10;;;;;;;;;;5058900;28;20266;-70
2021/10/08 02:34:55;;;;;;;205.57;36.90;;;;;;;;;;5058406;28;20223;-70
2021/10/08 02:37:22;;;;;;;215.17;36.70;;;;;;;;;;5058552;28;21133;-70
2021/10/08 02:39:48;;;;;;;231.97;39.60;;;;;;;;;;5059532;28;20285;-70
2021/10/08 02:42:16;;;;;;;175.27;34.67;;;;;;;;;;5056480;28;20243;-70
2021/10/08 02:44:42;;;;;;;227.73;38.80;;;;;;;;;;5058372;28;20648;-70
2021/10/08 02:47:10;;;;;;;241.13;39.70;;;;;;;;;;5057297;28;20272;-70
2021/10/08 02:49:36;;;;;;;171.83;37.63;;;;;;;;;;5058890;28;20231;-70
2021/10/08 02:52:04;;;;;;;135.60;32.97;;;;;;;;;;5056318;28;20237;-70
2021/10/08 02:54:30;;;;;;;223.53;38.27;;;;;;;;;;5056888;28;20217;-70
2021/10/08 02:56:57;;;;;;;294.23;45.37;;;;;;;;;;5058090;28;20215;-70
2021/10/08 02:59:23;;;;;;;241.97;39.50;;;;;;;;;;5057192;28;20288;-70
2021/10/08 03:01:49;;;;;;;156.37;31.33;;;;;;;;;;5056261;28;20605;-70
2021/10/08 03:04:17;;;;;;;115.13;35.03;;;;;;;;;;5057626;28;20212;-70
2021/10/08 03:06:44;;;;;;;185.27;34.60;;;;;;;;;;5055793;28;21014;-70
2021/10/08 03:09:10;;;;;;;157.83;35.33;;;;;;;;;;5055840;28;20251;-70
2021/10/08 03:11:36;;;;;;;306.60;48.20;;;;;;;;;;5056594;28;20238;-70
2021/10/08 03:14:03;;;;;;;133.70;30.87;;;;;;;;;;5054896;28;20211;-70
2021/10/08 03:16:29;;;;;;;343.30;44.57;;;;;;;;;;5056989;28;20223;-70
2021/10/08 03:18:56;;;;;;;299.30;41.83;;;;;;;;;;5055795;28;20219;-70
2021/10/08 03:21:23;;;;;;;214.67;38.43;;;;;;;;;;5054688;28;20284;-70
2021/10/08 03:23:50;;;;;;;267.33;40.70;;;;;;;;;;5057709;28;20218;-70
2021/10/08 03:26:16;;;;;;;486.20;55.70;;;;;;;;;;5057675;28;20216;-70
2021/10/08 03:28:43;;;;;;;338.90;46.17;;;;;;;;;;5056728;28;20209;-70
2021/10/08 03:31:09;;;;;;;440.13;49.70;;;;;;;;;;5057329;28;20212;-70
2021/10/08 03:33:35;;;;;;;266.10;38.00;;;;;;;;;;5057638;28;20641;-70
2021/10/08 03:36:02;;;;;;;312.17;39.83;;;;;;;;;;5056870;28;20219;-70
2021/10/08 03:38:32;;;;;;;536.30;56.17;;;;;;;;;;5057410;28;20211;-70
2021/10/08 03:41:07;;;;;;;262.93;36.93;;;;;;;;;;5056734;28;20236;-70
2021/10/08 03:43:34;;;;;;;242.20;36.23;;;;;;;;;;5056598;28;20212;-70
2021/10/08 03:46:05;;;;;;;289.33;37.97;;;;;;;;;;5057799;28;20213;-70
2021/10/08 03:51:18;;;;;;;322.10;41.20;;;;;;;;;;5024306;28;20800;-72
2021/10/08 03:53:46;;;;;;;351.73;44.63;;;;;;;;;;5054529;28;20224;-72
2021/10/08 03:56:12;;;;;;;461.27;56.23;;;;;;;;;;5058097;28;20217;-72
2021/10/08 03:58:38;;;;;;;358.67;48.93;;;;;;;;;;5056363;28;20297;-72
2021/10/08 04:01:05;;;;;;;477.10;53.40;;;;;;;;;;5056367;28;20232;-72
2021/10/08 04:03:31;;;;;;;475.00;50.83;;;;;;;;;;5055688;28;20212;-72
2021/10/08 04:05:58;;;;;;;401.07;47.83;;;;;;;;;;5055652;28;20236;-70
2021/10/08 04:08:25;;;;;;;278.40;35.57;;;;;;;;;;5056893;28;21142;-73
2021/10/08 04:10:53;;;;;;;394.43;47.70;;;;;;;;;;5057471;28;20258;-70
2021/10/08 04:13:19;;;;;;;426.53;53.03;;;;;;;;;;5055403;28;20305;-70
2021/10/08 04:15:46;;;;;;;94.53;24.60;;;;;;;;;;5054586;28;20216;-72
2021/10/08 04:18:12;;;;;;;256.17;37.13;;;;;;;;;;5054445;28;20223;-72
2021/10/08 04:20:39;;;;;;;319.23;43.53;;;;;;;;;;5056858;28;20231;-72
2021/10/08 04:23:06;;;;;;;210.87;33.20;;;;;;;;;;5056215;28;20782;-72
2021/10/08 04:25:32;;;;;;;180.93;29.57;;;;;;;;;;5056459;28;20307;-72
2021/10/08 04:28:00;;;;;;;251.97;33.93;;;;;;;;;;5055612;28;20218;-72
2021/10/08 04:30:27;;;;;;;159.65;28.77;;;;;;;;;;5055628;28;20491;-75
2021/10/08 04:32:53;;;;;;;203.87;29.77;;;;;;;;;;5056276;28;20221;-75
2021/10/08 04:35:20;;;;;;;151.23;25.63;;;;;;;;;;5056535;28;20280;-75
2021/10/08 04:37:46;;;;;;;426.87;42.83;;;;;;;;;;5055025;28;20203;-75
2021/10/08 04:40:13;;;;;;;519.20;55.40;;;;;;;;;;5056252;28;20212;-75
2021/10/08 04:42:39;;;;;;;269.50;35.90;;;;;;;;;;5057468;28;20587;-73
2021/10/08 04:45:08;;;;;;;344.30;40.03;;;;;;;;;;5056344;28;20245;-75
2021/10/08 04:47:35;;;;;;;375.40;45.27;;;;;;;;;;5055380;28;20204;-75
2021/10/08 04:50:01;;;;;;;265.63;36.63;;;;;;;;;;5057202;28;20222;-75
2021/10/08 04:52:28;;;;;;;359.20;46.03;;;;;;;;;;5055579;28;20207;-73
2021/10/08 04:54:54;;;;;;;389.07;45.10;;;;;;;;;;5057210;28;20592;-73
2021/10/08 04:57:21;;;;;;;228.97;35.47;;;;;;;;;;5055240;28;20206;-73
2021/10/08 04:59:47;;;;;;;234.57;34.60;;;;;;;;;;5055697;28;20212;-76
2021/10/08 05:02:15;;;;;;;442.30;49.53;;;;;;;;;;5054225;28;20233;-75
2021/10/08 05:04:41;;;;;;;277.50;33.20;;;;;;;;;;5054070;28;20236;-75
2021/10/08 05:07:08;;;;;;;197.73;29.53;;;;;;;;;;5055662;28;20690;-73
2021/10/08 05:09:34;;;;;;;236.00;30.97;;;;;;;;;;5054917;28;20203;-73
2021/10/08 05:12:01;;;;;;;340.90;43.13;;;;;;;;;;5055507;28;20277;-72
2021/10/08 05:14:27;;;;;;;336.10;35.83;;;;;;;;;;5054759;28;20250;-73
2021/10/08 05:16:54;;;;;;;192.93;29.33;;;;;;;;;;5055893;28;20655;-75
2021/10/08 05:19:23;;;;;;;268.83;37.00;;;;;;;;;;5056760;28;20293;-75
2021/10/08 05:21:50;;;;;;;256.63;34.20;;;;;;;;;;5055581;28;20241;-75
2021/10/08 05:24:17;;;;;;;211.20;32.47;;;;;;;;;;5055280;28;20340;-75
2021/10/08 05:26:44;;;;;;;210.00;33.23;;;;;;;;;;5054607;28;20209;-75
2021/10/08 05:29:10;;;;;;;183.87;30.53;;;;;;;;;;5055300;28;20210;-75
2021/10/08 05:31:36;;;;;;;185.90;30.60;;;;;;;;;;5054140;28;20211;-72
2021/10/08 05:34:03;;;;;;;188.17;28.53;;;;;;;;;;5053923;28;20759;-75
2021/10/08 05:36:31;;;;;;;269.77;36.17;;;;;;;;;;5053616;28;20702;-75
2021/10/08 05:38:57;;;;;;;256.57;31.17;;;;;;;;;;5054911;28;20214;-75
2021/10/08 05:41:23;;;;;;;173.67;28.57;;;;;;;;;;5054509;28;20237;-75
2021/10/08 05:43:50;;;;;;;326.07;39.87;;;;;;;;;;5052973;28;20275;-75
2021/10/08 05:46:17;;;;;;;465.57;49.53;;;;;;;;;;5053102;28;20618;-75
2021/10/08 05:48:43;;;;;;;232.63;33.03;;;;;;;;;;5051659;28;21102;-75
2021/10/08 05:51:10;;;;;;;298.13;39.60;;;;;;;;;;5052605;28;20608;-75
2021/10/08 05:53:38;;;;;;;216.00;35.50;;;;;;;;;;5051757;28;20233;-75
2021/10/08 05:56:04;;;;;;;227.60;34.63;;;;;;;;;;5051855;28;20213;-75
2021/10/08 05:58:31;;;;;;;134.57;26.87;;;;;;;;;;5054997;28;20241;-75
2021/10/08 06:00:57;;;;;;;72.23;20.97;;;;;;;;;;5056085;28;20211;-75
2021/10/08 06:03:24;;;;;;;86.87;26.63;;;;;;;;;;5058486;28;20277;-76
2021/10/08 06:05:50;;;;;;;134.30;27.20;;;;;;;;;;5056995;28;20247;-75
2021/10/08 06:08:17;;;;;;;124.87;24.57;;;;;;;;;;5056198;28;20206;-75
2021/10/08 06:10:44;;;;;;;209.67;30.73;;;;;;;;;;5056710;28;20218;-76
2021/10/08 06:13:11;;;;;;;128.73;26.87;;;;;;;;;;5056094;28;20243;-76
2021/10/08 06:15:37;;;;;;;70.30;23.93;;;;;;;;;;5058155;28;20268;-75
2021/10/08 06:18:04;;;;;;;98.27;24.50;;;;;;;;;;5053627;28;20375;-75
2021/10/08 06:20:30;;;;;;;143.97;26.73;;;;;;;;;;5055439;28;20230;-75
2021/10/08 06:22:58;;;;;;;106.67;25.57;;;;;;;;;;5054672;28;20240;-75
2021/10/08 06:25:24;;;;;;;134.83;27.80;;;;;;;;;;5056696;28;20626;-75
2021/10/08 06:27:52;;;;;;;88.67;22.03;;;;;;;;;;5056101;28;20225;-75
2021/10/08 06:30:19;;;;;;;58.90;19.80;;;;;;;;;;5057050;28;20264;-75
2021/10/08 06:32:46;;;;;;;61.83;18.53;;;;;;;;;;5055821;28;20646;-75
2021/10/08 06:35:12;;;;;;;44.90;19.50;;;;;;;;;;5055308;28;20238;-76
2021/10/08 06:37:39;;;;;;;56.87;17.97;;;;;;;;;;5053750;28;20218;-75
2021/10/08 06:40:07;;;;;;;80.47;19.37;;;;;;;;;;5054633;28;20359;-76
2021/10/08 06:42:33;;;;;;;88.27;20.10;;;;;;;;;;5055796;28;20280;-75
2021/10/08 06:45:01;;;;;;;60.80;18.47;;;;;;;;;;5056343;28;20704;-75
2021/10/08 06:47:28;;;;;;;51.30;19.60;;;;;;;;;;5055367;28;20267;-75
2021/10/08 06:49:54;;;;;;;105.00;21.53;;;;;;;;;;5056961;28;20239;-74
2021/10/08 06:52:20;;;;;;;95.17;21.00;;;;;;;;;;5055225;28;20222;-75
2021/10/08 06:54:47;;;;;;;50.23;17.80;;;;;;;;;;5054007;28;20248;-75
2021/10/08 06:57:13;;;;;;;94.40;23.43;;;;;;;;;;5052462;28;20674;-75
2021/10/08 06:59:39;;;;;;;60.77;19.03;;;;;;;;;;5052995;28;20222;-75
2021/10/08 07:02:08;;;;;;;70.90;20.70;;;;;;;;;;5055985;28;20227;-74
2021/10/08 07:04:34;;;;;;;30.73;18.10;;;;;;;;;;5054469;28;20214;-72
2021/10/08 07:07:02;;;;;;;61.70;19.20;;;;;;;;;;5053774;28;20667;-73
2021/10/08 07:09:28;;;;;;;71.80;21.50;;;;;;;;;;5055311;28;20631;-73
2021/10/08 07:11:55;;;;;;;40.90;19.43;;;;;;;;;;5052945;28;20381;-73
2021/10/08 07:14:21;;;;;;;32.63;17.50;;;;;;;;;;5054167;28;20847;-74
2021/10/08 07:16:50;;;;;;;54.23;19.57;;;;;;;;;;5053441;28;20594;-75
2021/10/08 07:19:18;;;;;;;42.73;19.60;;;;;;;;;;5054980;28;20238;-73
2021/10/08 07:21:44;;;;;;;29.00;17.00;;;;;;;;;;5052703;28;21447;-73
2021/10/08 07:24:11;;;;;;;64.87;21.77;;;;;;;;;;5055242;28;20224;-73
2021/10/08 07:26:37;;;;;;;34.43;18.73;;;;;;;;;;5054434;28;20225;-72
2021/10/08 07:29:04;;;;;;;32.90;19.70;;;;;;;;;;5055256;28;20660;-72
2021/10/08 07:31:31;;;;;;;31.93;18.90;;;;;;;;;;5054444;28;20273;-71
2021/10/08 07:33:57;;;;;;;29.40;18.20;;;;;;;;;;5056813;28;20578;-71
2021/10/08 07:36:26;;;;;;;28.57;19.70;;;;;;;;;;5052115;28;20792;-71
2021/10/08 07:38:52;;;;;;;40.90;21.20;;;;;;;;;;5054280;28;20263;-72
2021/10/08 07:41:18;;;;;;;35.67;22.53;;;;;;;;;;5052365;28;20720;-71
2021/10/08 07:43:45;;;;;;;27.83;19.30;;;;;;;;;;5055105;28;20612;-71
2021/10/08 07:46:12;;;;;;;31.70;19.40;;;;;;;;;;5054032;28;21103;-71
2021/10/08 07:48:39;;;;;;;31.37;21.10;;;;;;;;;;5055518;28;20212;-73
2021/10/08 07:51:06;;;;;;;33.87;20.87;;;;;;;;;;5054279;28;20237;-72
2021/10/08 07:53:33;;;;;;;29.67;19.47;;;;;;;;;;5054041;28;20274;-72
2021/10/08 07:56:00;;;;;;;30.27;18.87;;;;;;;;;;5051972;28;20307;-71
2021/10/08 07:58:27;;;;;;;32.53;20.07;;;;;;;;;;5053736;28;20238;-71
2021/10/08 08:00:54;;;;;;;27.27;19.30;;;;;;;;;;5054495;28;20327;-71
2021/10/08 08:03:21;;;;;;;29.70;20.10;;;;;;;;;;5054544;28;20369;-71
2021/10/08 08:05:47;;;;;;;32.73;21.27;;;;;;;;;;5052780;28;20241;-71
2021/10/08 08:08:13;;;;;;;33.23;20.43;;;;;;;;;;5052460;28;20221;-71
2021/10/08 08:10:41;;;;;;;32.10;20.20;;;;;;;;;;5054639;28;20203;-71
2021/10/08 08:13:08;;;;;;;31.03;19.97;;;;;;;;;;5053270;28;20245;-73
2021/10/08 08:15:34;;;;;;;32.63;20.63;;;;;;;;;;5052890;28;20226;-71
2021/10/08 08:18:00;;;;;;;35.13;21.67;;;;;;;;;;5052345;28;20734;-71
2021/10/08 08:20:27;;;;;;;31.60;20.13;;;;;;;;;;5050909;28;20290;-71
2021/10/08 08:22:54;;;;;;;31.10;21.50;;;;;;;;;;5049296;28;20256;-71
2021/10/08 08:25:21;;;;;;;26.00;18.67;;;;;;;;;;5052190;28;20441;-71
2021/10/08 08:27:48;;;;;;;29.27;20.87;;;;;;;;;;5053026;28;20209;-71
2021/10/08 08:30:15;;;;;;;27.00;19.03;;;;;;;;;;5050705;28;20658;-71
2021/10/08 08:32:41;;;;;;;24.90;19.43;;;;;;;;;;5051577;28;20255;-71
2021/10/08 08:35:09;;;;;;;26.97;20.47;;;;;;;;;;5051089;28;20237;-71
2021/10/08 08:37:36;;;;;;;32.83;20.93;;;;;;;;;;5039135;28;20856;-71
2021/10/08 08:40:06;;;;;;;27.83;19.97;;;;;;;;;;5050176;28;20291;-70
2021/10/08 08:42:33;;;;;;;29.87;19.13;;;;;;;;;;5053494;28;20594;-73
2021/10/08 08:45:01;;;;;;;28.33;20.07;;;;;;;;;;5050930;28;20303;-70
2021/10/08 08:47:27;;;;;;;33.60;20.40;;;;;;;;;;5053679;28;20763;-73
2021/10/08 08:49:53;;;;;;;31.27;22.40;;;;;;;;;;5053051;28;20229;-71
2021/10/08 08:52:21;;;;;;;26.67;20.20;;;;;;;;;;5053000;28;20201;-70
2021/10/08 08:54:48;;;;;;;23.37;19.30;;;;;;;;;;5052430;28;20664;-71
2021/10/08 08:57:18;;;;;;;25.90;19.77;;;;;;;;;;5053346;28;20206;-72
2021/10/08 08:59:58;;;;;;;21.10;18.13;;;;;;;;;;5053273;28;20255;-72
2021/10/08 09:02:27;;;;;;;23.23;18.97;;;;;;;;;;5052772;28;20229;-72
2021/10/08 09:04:54;;;;;;;22.30;17.87;;;;;;;;;;5054265;28;20260;-71
2021/10/08 09:07:21;;;;;;;21.50;18.33;;;;;;;;;;5052151;28;20215;-72
2021/10/08 09:09:47;;;;;;;21.83;17.23;;;;;;;;;;5052839;28;20248;-73
2021/10/08 09:12:15;;;;;;;21.73;18.63;;;;;;;;;;5052782;28;20292;-72
2021/10/08 09:14:41;;;;;;;23.47;19.33;;;;;;;;;;5053529;28;20285;-70
2021/10/08 09:17:11;;;;;;;25.00;20.53;;;;;;;;;;5051382;28;20236;-70
2021/10/08 09:19:53;;;;;;;23.30;20.63;;;;;;;;;;5053098;28;20219;-70
2021/10/08 09:22:22;;;;;;;25.43;20.07;;;;;;;;;;5052589;28;20252;-70
2021/10/08 09:24:49;;;;;;;26.77;21.80;;;;;;;;;;5053482;28;20218;-70
2021/10/08 09:27:19;;;;;;;26.33;21.43;;;;;;;;;;5045398;28;20633;-70
2021/10/08 09:29:51;;;;;;;28.33;20.37;;;;;;;;;;5048701;28;20198;-74
2021/10/08 09:32:18;;;;;;;29.23;19.80;;;;;;;;;;5050241;28;20224;-73
2021/10/08 09:34:45;;;;;;;32.07;21.53;;;;;;;;;;5055350;28;20359;-74
2021/10/08 09:37:14;;;;;;;24.77;20.77;;;;;;;;;;5056832;28;20221;-73
2021/10/08 09:39:41;;;;;;;26.50;20.93;;;;;;;;;;5056760;28;20739;-73
2021/10/08 09:42:11;;;;;;;24.80;20.33;;;;;;;;;;5055378;28;20232;-74
2021/10/08 09:44:43;;;;;;;25.97;20.40;;;;;;;;;;5056275;28;20214;-73
2021/10/08 09:47:12;;;;;;;25.50;22.07;;;;;;;;;;5057631;28;20216;-74
2021/10/08 09:49:39;;;;;;;24.43;21.23;;;;;;;;;;5057448;28;20367;-76
2021/10/08 09:52:28;;;;;;;24.23;21.30;;;;;;;;;;5057116;28;20221;-75
2021/10/08 09:54:55;;;;;;;24.07;20.20;;;;;;;;;;5055664;28;20212;-70
2021/10/08 09:57:22;;;;;;;22.67;19.80;;;;;;;;;;5057270;28;20980;-73
2021/10/08 09:59:50;;;;;;;23.23;20.27;;;;;;;;;;5054770;28;20223;-73
2021/10/08 10:02:17;;;;;;;23.60;20.60;;;;;;;;;;5057408;28;20212;-75
2021/10/08 10:04:48;;;;;;;26.73;21.93;;;;;;;;;;5056389;28;20589;-73
2021/10/08 10:07:16;;;;;;;24.97;20.80;;;;;;;;;;5053157;28;20211;-72
2021/10/08 10:09:44;;;;;;;23.63;20.87;;;;;;;;;;5056436;28;20225;-72
2021/10/08 10:12:11;;;;;;;27.13;20.93;;;;;;;;;;5055561;28;20245;-72
2021/10/08 10:14:39;;;;;;;27.80;22.70;;;;;;;;;;5056144;28;20215;-72
2021/10/08 10:17:08;;;;;;;26.67;22.60;;;;;;;;;;5055959;28;20260;-72
2021/10/08 10:19:37;;;;;;;30.57;22.23;;;;;;;;;;5055891;28;20215;-74
2021/10/08 10:22:04;;;;;;;31.07;21.93;;;;;;;;;;5058380;28;20285;-72
2021/10/08 10:24:31;;;;;;;24.60;22.00;;;;;;;;;;5055405;28;20236;-73
2021/10/08 10:26:59;;;;;;;27.03;24.13;;;;;;;;;;5054701;28;20292;-73
2021/10/08 10:29:26;;;;;;;27.03;22.37;;;;;;;;;;5052585;28;20215;-75
2021/10/08 10:31:53;;;;;;;25.10;21.87;;;;;;;;;;5053872;28;20218;-75
2021/10/08 10:34:20;;;;;;;27.93;23.53;;;;;;;;;;5055571;28;20206;-72
2021/10/08 10:36:46;;;;;;;28.90;21.63;;;;;;;;;;5056671;28;20222;-75
2021/10/08 10:39:20;;;;;;;28.70;21.63;;;;;;;;;;5054919;28;20270;-75
2021/10/08 10:41:47;;;;;;;25.37;22.77;;;;;;;;;;5054415;28;20644;-74
2021/10/08 10:44:20;;;;;;;26.27;23.63;;;;;;;;;;5051644;28;20233;-74
2021/10/08 10:46:58;;;;;;;22.47;20.17;;;;;;;;;;5053798;28;20199;-74
2021/10/08 10:52:28;;;;;;;23.77;20.77;;;;;;;;;;5054317;28;20202;-72
2021/10/08 10:55:07;;;;;;;22.50;20.20;;;;;;;;;;5056144;28;20217;-74
2021/10/08 10:57:56;;;;;;;22.77;20.00;;;;;;;;;;5053073;28;20284;-75
2021/10/08 11:00:27;;;;;;;25.00;20.10;;;;;;;;;;5054089;28;20222;-74
2021/10/08 11:03:07;;;;;;;23.57;20.40;;;;;;;;;;5054641;28;20695;-74
2021/10/08 11:05:37;;;;;;;24.40;19.57;;;;;;;;;;5053761;28;20391;-73
2021/10/08 11:08:12;;;;;;;22.53;18.63;;;;;;;;;;5056626;28;20679;-74
2021/10/08 11:10:42;;;;;;;21.03;18.57;;;;;;;;;;5052788;28;20288;-74
2021/10/08 11:13:23;;;;;;;20.73;17.67;;;;;;;;;;5054387;28;20238;-74
2021/10/08 11:15:56;;;;;;;20.07;17.97;;;;;;;;;;5056478;28;20257;-72
2021/10/08 11:18:43;;;;;;;20.30;18.20;;;;;;;;;;5054079;28;20210;-72
2021/10/08 11:21:12;;;;;;;20.27;17.77;;;;;;;;;;5053087;28;20265;-72
2021/10/08 11:23:40;;;;;;;20.07;17.67;;;;;;;;;;5055330;28;20743;-74
2021/10/08 11:26:10;;;;;;;20.03;18.03;;;;;;;;;;5052882;28;20211;-74
2021/10/08 11:28:39;;;;;;;27.07;19.73;;;;;;;;;;5056488;28;20604;-74
2021/10/08 11:31:09;;;;;;;17.67;15.87;;;;;;;;;;5053177;28;20217;-74
2021/10/08 11:33:39;;;;;;;19.27;15.63;;;;;;;;;;5053448;28;20662;-74
2021/10/08 11:36:13;;;;;;;26.33;15.63;;;;;;;;;;5054281;28;20288;-74
2021/10/08 11:38:39;;;;;;;17.07;15.27;;;;;;;;;;5054169;28;20263;-74
2021/10/08 11:41:14;;;;;;;16.73;14.73;;;;;;;;;;5054781;28;20635;-74
2021/10/08 11:43:40;;;;;;;17.83;15.60;;;;;;;;;;5053529;28;20236;-74
2021/10/08 11:46:21;;;;;;;18.00;16.20;;;;;;;;;;5051042;28;20236;-74
2021/10/08 11:48:51;;;;;;;21.33;16.47;;;;;;;;;;5054192;28;20310;-74
2021/10/08 11:51:18;;;;;;;20.33;15.67;;;;;;;;;;5053253;28;20314;-74
2021/10/08 11:53:46;;;;;;;17.37;15.57;;;;;;;;;;5053572;28;20236;-75
2021/10/08 11:56:24;;;;;;;16.63;14.93;;;;;;;;;;5054534;28;20214;-73
2021/10/08 11:58:51;;;;;;;16.73;14.97;;;;;;;;;;5054825;28;20728;-74
2021/10/08 12:01:22;;;;;;;20.00;14.27;;;;;;;;;;5051586;28;20279;-75
2021/10/08 12:03:49;;;;;;;20.30;13.87;;;;;;;;;;5053387;28;20217;-75
2021/10/08 12:06:21;;;;;;;19.10;14.40;;;;;;;;;;5053812;28;20280;-76
2021/10/08 12:08:47;;;;;;;16.33;14.73;;;;;;;;;;5054454;28;20254;-75
2021/10/08 12:11:15;;;;;;;17.43;14.47;;;;;;;;;;5051302;28;20214;-75
2021/10/08 12:13:45;;;;;;;23.33;12.73;;;;;;;;;;5053330;28;20686;-75
2021/10/08 12:16:14;;;;;;;15.17;13.67;;;;;;;;;;5054270;28;20757;-76
2021/10/08 12:18:48;;;;;;;13.63;12.33;;;;;;;;;;5053618;28;20223;-75
2021/10/08 12:21:18;;;;;;;14.70;12.83;;;;;;;;;;5053156;28;20226;-75
2021/10/08 12:23:53;;;;;;;14.07;12.57;;;;;;;;;;5053412;28;20234;-75
2021/10/08 12:26:20;;;;;;;13.37;11.97;;;;;;;;;;5053084;28;20264;-75
2021/10/08 12:28:49;;;;;;;13.43;12.13;;;;;;;;;;5053733;28;20691;-75
2021/10/08 12:31:16;;;;;;;20.47;12.30;;;;;;;;;;5055001;28;20717;-72
2021/10/08 12:33:44;;;;;;;13.03;11.63;;;;;;;;;;5053962;28;20860;-73
2021/10/08 12:36:25;;;;;;;11.70;10.60;;;;;;;;;;5053709;28;20861;-73
2021/10/08 12:38:58;;;;;;;22.83;11.17;;;;;;;;;;5053735;28;20218;-75
2021/10/08 12:41:29;;;;;;;10.80;8.87;;;;;;;;;;5052935;28;20212;-74
2021/10/08 12:44:10;;;;;;;12.53;10.83;;;;;;;;;;5052716;28;20226;-75
2021/10/08 12:46:38;;;;;;;10.63;9.60;;;;;;;;;;5053471;28;20215;-75
2021/10/08 12:49:06;;;;;;;11.73;10.10;;;;;;;;;;5052188;28;20214;-75
2021/10/08 12:51:44;;;;;;;10.23;9.10;;;;;;;;;;5051526;28;20248;-73
2021/10/08 12:54:19;;;;;;;9.93;9.03;;;;;;;;;;5052984;28;20738;-74
2021/10/08 12:56:47;;;;;;;9.43;8.53;;;;;;;;;;5053997;28;20233;-73
2021/10/08 12:59:14;;;;;;;10.30;9.40;;;;;;;;;;5052930;28;20218;-73
2021/10/08 13:01:54;;;;;;;9.43;8.43;;;;;;;;;;5053011;28;20344;-73
2021/10/08 13:04:21;;;;;;;8.07;7.30;;;;;;;;;;5051842;28;20233;-71
2021/10/08 13:06:50;;;;;;;6.63;6.00;;;;;;;;;;5053168;28;20230;-71
2021/10/08 13:09:18;;;;;;;7.13;6.43;;;;;;;;;;5050306;28;20563;-72
2021/10/08 13:11:46;;;;;;;6.33;5.50;;;;;;;;;;5052785;28;20380;-74
2021/10/08 13:14:21;;;;;;;8.03;6.97;;;;;;;;;;5051994;28;20779;-72
2021/10/08 13:16:48;;;;;;;9.40;7.03;;;;;;;;;;5052445;28;20581;-74
2021/10/08 13:19:29;;;;;;;15.07;7.80;;;;;;;;;;5052081;28;20217;-74
2021/10/08 13:21:56;;;;;;;11.00;8.70;;;;;;;;;;5052459;28;20239;-75
2021/10/08 13:24:23;;;;;;;10.33;9.33;;;;;;;;;;5052917;28;20230;-75
2021/10/08 13:26:50;;;;;;;8.73;7.83;;;;;;;;;;5053249;28;20871;-75
2021/10/08 13:29:16;;;;;;;10.03;8.67;;;;;;;;;;5055380;28;20222;-75
2021/10/08 13:31:43;;;;;;;9.20;8.30;;;;;;;;;;5052002;28;20635;-75
2021/10/08 13:34:09;;;;;;;12.10;7.03;;;;;;;;;;5053027;28;20303;-74
2021/10/08 13:36:36;;;;;;;14.53;6.83;;;;;;;;;;5053926;28;20238;-75
2021/10/08 13:39:04;;;;;;;10.37;8.43;;;;;;;;;;5052618;28;20222;-75
2021/10/08 13:41:30;;;;;;;10.07;8.93;;;;;;;;;;5053259;28;20269;-75
2021/10/08 13:43:57;;;;;;;8.70;7.97;;;;;;;;;;5051036;28;20236;-73
2021/10/08 13:46:23;;;;;;;9.67;8.77;;;;;;;;;;5052488;28;20284;-75
2021/10/08 13:48:50;;;;;;;11.70;10.07;;;;;;;;;;5053075;28;20223;-72
2021/10/08 13:51:17;;;;;;;10.10;9.10;;;;;;;;;;5050506;28;20229;-71
2021/10/08 13:53:44;;;;;;;14.40;10.23;;;;;;;;;;5052540;28;20675;-71
2021/10/08 13:56:12;;;;;;;10.67;8.50;;;;;;;;;;5053392;28;20295;-71
2021/10/08 13:58:39;;;;;;;11.17;9.60;;;;;;;;;;5050645;28;20292;-74
2021/10/08 14:01:05;;;;;;;13.40;9.03;;;;;;;;;;5051027;28;20218;-74
2021/10/08 14:03:36;;;;;;;10.70;9.63;;;;;;;;;;5053227;28;20219;-71
2021/10/08 14:06:20;;;;;;;11.63;10.40;;;;;;;;;;5052884;28;20274;-71
2021/10/08 14:08:51;;;;;;;10.97;9.83;;;;;;;;;;5054499;28;20680;-74
2021/10/08 14:11:19;;;;;;;12.00;9.23;;;;;;;;;;5053579;28;20217;-73
2021/10/08 14:13:45;;;;;;;9.40;8.50;;;;;;;;;;5054575;28;20280;-74
2021/10/08 14:16:11;;;;;;;10.00;9.00;;;;;;;;;;5052707;28;20215;-74
2021/10/08 14:18:38;;;;;;;10.82;9.70;;;;;;;;;;5052185;28;20513;-75
2021/10/08 14:21:04;;;;;;;10.90;9.63;;;;;;;;;;5053070;28;20233;-74
2021/10/08 14:23:31;;;;;;;10.57;9.57;;;;;;;;;;5057177;28;20244;-74